CDT,Max TemperatureF,Mean TemperatureF,Min TemperatureF,Max Dew PointF,MeanDew PointF,Min DewpointF,Max Humidity, Mean Humidity, Min Humidity, Max Sea Level PressureIn, Mean Sea Level PressureIn, Min Sea Level PressureIn, Max VisibilityMiles, Mean VisibilityMiles, Min VisibilityMiles, Max Wind SpeedMPH, Mean Wind SpeedMPH, Max Gust SpeedMPH,PrecipitationIn, CloudCover, Events, WindDirDegrees
2010-10-1,81,68,55,46,44,41,67,44,26,30.21,30.14,30.07,10,10,10,9,5,,0.00,1,,81
2010-10-2,77,65,55,47,41,33,64,42,27,30.29,30.21,30.11,10,10,10,20,9,25,0.00,0,,21
2010-10-3,62,56,50,37,34,30,61,47,31,30.42,30.33,30.27,10,10,10,14,8,,0.00,1,,113
2010-10-4,73,60,48,37,36,34,63,42,27,30.33,30.27,30.20,10,10,10,18,10,25,0.00,0,,160
2010-10-5,79,65,52,39,38,37,59,39,23,30.32,30.27,30.22,10,10,10,24,14,25,0.00,1,,166
2010-10-6,84,70,55,46,42,39,57,39,25,30.31,30.23,30.15,10,10,10,15,12,21,0.00,0,,190
2010-10-7,89,72,55,46,44,42,62,35,22,30.21,30.14,30.09,10,10,10,15,10,20,0.00,0,,191
2010-10-8,87,72,57,43,39,33,56,33,15,30.12,30.05,29.98,10,10,10,16,12,23,0.00,0,,182
2010-10-9,84,70,57,47,42,40,55,38,23,30.04,29.99,29.94,10,10,10,16,10,,0.00,0,,208
2010-10-10,79,68,59,55,50,43,81,55,37,29.98,29.90,29.83,10,10,10,20,7,,0.00,1,Rain,72
2010-10-11,78,64,53,53,47,42,94,63,32,29.96,29.91,29.86,10,8,1,20,7,29,0.00,0,,312
2010-10-12,82,68,54,50,45,42,74,48,24,30.21,30.08,29.96,10,10,10,21,13,30,0.00,0,,331
2010-10-13,73,63,53,50,36,26,70,42,19,30.40,30.33,30.22,10,10,10,22,14,31,0.00,0,,2
2010-10-14,80,62,46,38,33,25,50,34,21,30.38,30.26,30.13,10,9,2,16,8,21,0.00,0,,223
2010-10-15,88,71,55,43,39,35,49,35,18,30.13,30.07,29.99,10,10,8,17,11,22,0.00,0,,189
2010-10-16,84,70,57,43,41,38,53,36,19,30.09,30.04,30.01,10,10,10,18,14,24,0.00,0,,186
2010-10-17,86,69,54,45,40,38,55,36,19,30.08,29.99,29.90,10,10,10,20,13,23,0.00,0,,180
2010-10-18,86,70,57,52,49,46,70,50,27,29.95,29.89,29.83,10,10,6,16,12,29,0.01,0,Rain,180
2010-10-19,73,63,53,53,47,42,70,62,46,30.09,30.01,29.93,10,10,10,15,10,,0.00,2,,35
2010-10-20,80,65,50,52,44,40,80,52,24,30.11,30.05,30.00,10,10,10,12,5,,0.00,0,,208
2010-10-21,82,68,55,57,53,44,94,67,37,30.06,29.98,29.88,10,8,1,25,12,31,1.17,4,Rain-Thunderstorm,248
2010-10-22,66,62,57,63,57,54,94,89,80,30.05,29.91,29.80,10,8,2,22,10,29,0.84,6,Rain-Thunderstorm,142
2010-10-23,66,60,57,60,54,48,90,77,64,29.82,29.76,29.70,10,10,8,28,18,32,0.00,0,,187
2010-10-24,75,63,53,56,53,50,90,74,45,29.81,29.74,29.63,10,10,10,16,10,,0.00,0,,166
2010-10-25,79,67,55,53,48,41,81,57,31,29.60,29.36,29.16,10,10,9,36,17,47,0.00,0,,219
2010-10-26,68,58,48,44,35,27,69,47,21,29.75,29.66,29.51,10,10,10,21,12,25,0.00,1,,249
2010-10-27,69,60,50,36,27,18,59,35,15,30.35,30.02,29.73,10,10,10,17,10,23,0.00,2,,332
2010-10-28,66,52,41,34,27,20,62,42,18,30.59,30.49,30.37,10,10,10,13,8,16,0.00,0,,355
2010-10-29,46,46,44,32,31,31,63,59,56,30.46,30.29,30.08,10,10,10,26,14,34,0.00,0,,187
2010-10-30,82,70,55,46,43,41,67,42,23,30.06,29.93,29.86,10,10,9,23,16,,0.00,0,,188
2010-10-31,77,62,48,46,42,40,83,56,27,30.03,29.87,29.78,10,10,10,15,8,,0.00,0,,309